SSJ130 UNTT-UNKL
Flight info
| Callsign | SSJ130 |
|---|---|
| Flight time | 0h 57m |
| Altitude | 19000 |
| Route | BINBA1J BINBA A300 RANET RANET2Z |
| Aircraft | AT75/M-SDFGIRY/S |
Departure
| Time | 2026-05-06 14:38 |
|---|---|
| Airport | Tomsk Kamov Airport (UNTT) |
Arrival
| Time | 2026-05-06 15:35 |
|---|---|
| Airport | Krasnoyarsk International Airport (UNKL) |
| Time | Latitude | Longitude | Altitude | Speed | Heading |
|---|---|---|---|---|---|
| 2026-05-06 14:26 | 56.38840 | 85.21110 | 565 ft | 0 kts | 302° |
| 2026-05-06 14:35 | 56.38840 | 85.21111 | 565 ft | 1 kts | 302° |
| 2026-05-06 14:35 | 56.38825 | 85.21152 | 571 ft | 7 kts | 309° |
| 2026-05-06 14:35 | 56.38793 | 85.21202 | 565 ft | 1 kts | 351° |
| 2026-05-06 14:35 | 56.38797 | 85.21208 | 571 ft | 7 kts | 19° |
| 2026-05-06 14:36 | 56.38874 | 85.21301 | 565 ft | 14 kts | 36° |
| 2026-05-06 14:36 | 56.38951 | 85.21389 | 566 ft | 12 kts | 34° |
| 2026-05-06 14:36 | 56.38955 | 85.21504 | 568 ft | 10 kts | 121° |
| 2026-05-06 14:36 | 56.38914 | 85.21610 | 570 ft | 10 kts | 123° |
| 2026-05-06 14:37 | 56.38861 | 85.21689 | 569 ft | 10 kts | 168° |
| 2026-05-06 14:37 | 56.38845 | 85.21683 | 564 ft | 0 kts | 208° |
| 2026-05-06 14:37 | 56.38803 | 85.21632 | 563 ft | 32 kts | 214° |
| 2026-05-06 14:37 | 56.38434 | 85.21192 | 573 ft | 92 kts | 213° |
| 2026-05-06 14:38 | 56.37770 | 85.20411 | 602 ft | 129 kts | 212° |
| 2026-05-06 14:38 | 56.37020 | 85.19580 | 1036 ft | 128 kts | 209° |
| 2026-05-06 14:38 | 56.36102 | 85.19077 | 1223 ft | 148 kts | 182° |
| 2026-05-06 14:38 | 56.35067 | 85.19460 | 1511 ft | 159 kts | 153° |
| 2026-05-06 14:39 | 56.34292 | 85.20987 | 1651 ft | 174 kts | 123° |
| 2026-05-06 14:39 | 56.33805 | 85.23027 | 1868 ft | 185 kts | 93° |
| 2026-05-06 14:39 | 56.33879 | 85.25339 | 2138 ft | 185 kts | 86° |
| 2026-05-06 14:39 | 56.34042 | 85.27624 | 2399 ft | 184 kts | 70° |
| 2026-05-06 14:40 | 56.34668 | 85.29599 | 2607 ft | 179 kts | 69° |
| 2026-05-06 14:40 | 56.34769 | 85.31759 | 2856 ft | 176 kts | 93° |
| 2026-05-06 14:40 | 56.34736 | 85.33967 | 3130 ft | 176 kts | 92° |
| 2026-05-06 14:40 | 56.34730 | 85.36187 | 3370 ft | 178 kts | 90° |
| 2026-05-06 14:41 | 56.34777 | 85.38430 | 3597 ft | 181 kts | 88° |
| 2026-05-06 14:41 | 56.34872 | 85.40700 | 3821 ft | 182 kts | 86° |
| 2026-05-06 14:41 | 56.34995 | 85.43001 | 4038 ft | 185 kts | 86° |
| 2026-05-06 14:41 | 56.35120 | 85.45319 | 4259 ft | 187 kts | 86° |
| 2026-05-06 14:42 | 56.35249 | 85.47669 | 4482 ft | 189 kts | 86° |
| 2026-05-06 14:42 | 56.35384 | 85.50012 | 4688 ft | 191 kts | 85° |
| 2026-05-06 14:42 | 56.35532 | 85.52415 | 4907 ft | 193 kts | 85° |
| 2026-05-06 14:42 | 56.35679 | 85.54848 | 5110 ft | 195 kts | 86° |
| 2026-05-06 14:43 | 56.35812 | 85.57282 | 5313 ft | 197 kts | 86° |
| 2026-05-06 14:43 | 56.35947 | 85.59760 | 5521 ft | 199 kts | 86° |
| 2026-05-06 14:43 | 56.36083 | 85.62265 | 5713 ft | 201 kts | 86° |
| 2026-05-06 14:43 | 56.36216 | 85.64794 | 5911 ft | 203 kts | 86° |
| 2026-05-06 14:44 | 56.36350 | 85.67349 | 6081 ft | 206 kts | 87° |
| 2026-05-06 14:44 | 56.36485 | 85.69935 | 6298 ft | 207 kts | 87° |
| 2026-05-06 14:44 | 56.36617 | 85.72464 | 6496 ft | 208 kts | 86° |
| 2026-05-06 14:45 | 56.36889 | 85.77698 | 6918 ft | 210 kts | 86° |
| 2026-05-06 14:45 | 56.37024 | 85.80318 | 7114 ft | 210 kts | 86° |
| 2026-05-06 14:45 | 56.37160 | 85.82945 | 7310 ft | 211 kts | 87° |
| 2026-05-06 14:45 | 56.37295 | 85.85580 | 7501 ft | 211 kts | 86° |
| 2026-05-06 14:46 | 56.37430 | 85.88223 | 7688 ft | 212 kts | 87° |
| 2026-05-06 14:46 | 56.37563 | 85.90850 | 7860 ft | 213 kts | 87° |
| 2026-05-06 14:46 | 56.37697 | 85.93525 | 8053 ft | 214 kts | 86° |
| 2026-05-06 14:46 | 56.37833 | 85.96207 | 8244 ft | 215 kts | 86° |
| 2026-05-06 14:47 | 56.37968 | 85.98892 | 8434 ft | 215 kts | 86° |
| 2026-05-06 14:47 | 56.38078 | 86.01583 | 8597 ft | 215 kts | 91° |
| 2026-05-06 14:47 | 56.38059 | 86.04293 | 8780 ft | 216 kts | 95° |
| 2026-05-06 14:47 | 56.37996 | 86.07001 | 8950 ft | 217 kts | 95° |
| 2026-05-06 14:48 | 56.37934 | 86.09716 | 9132 ft | 217 kts | 95° |
| 2026-05-06 14:48 | 56.37890 | 86.12450 | 9294 ft | 218 kts | 94° |
| 2026-05-06 14:48 | 56.37863 | 86.15199 | 9458 ft | 220 kts | 93° |
| 2026-05-06 14:48 | 56.37842 | 86.17932 | 9627 ft | 221 kts | 93° |
| 2026-05-06 14:49 | 56.37820 | 86.20710 | 9771 ft | 222 kts | 93° |
| 2026-05-06 14:49 | 56.37796 | 86.23507 | 9933 ft | 224 kts | 93° |
| 2026-05-06 14:49 | 56.37775 | 86.26330 | 10084 ft | 225 kts | 93° |
| 2026-05-06 14:49 | 56.37753 | 86.29159 | 10245 ft | 226 kts | 93° |
| 2026-05-06 14:50 | 56.37731 | 86.31995 | 10372 ft | 227 kts | 93° |
| 2026-05-06 14:50 | 56.37703 | 86.34844 | 10525 ft | 228 kts | 93° |
| 2026-05-06 14:50 | 56.37675 | 86.37675 | 10682 ft | 229 kts | 93° |
| 2026-05-06 14:50 | 56.37650 | 86.40562 | 10818 ft | 231 kts | 93° |
| 2026-05-06 14:51 | 56.37623 | 86.43474 | 10971 ft | 232 kts | 93° |
| 2026-05-06 14:51 | 56.37593 | 86.46384 | 11130 ft | 232 kts | 93° |
| 2026-05-06 14:51 | 56.37567 | 86.49305 | 11275 ft | 234 kts | 93° |
| 2026-05-06 14:51 | 56.37546 | 86.52243 | 11439 ft | 234 kts | 93° |
| 2026-05-06 14:52 | 56.37530 | 86.55204 | 11611 ft | 237 kts | 92° |
| 2026-05-06 14:52 | 56.37514 | 86.58174 | 11807 ft | 236 kts | 92° |
| 2026-05-06 14:52 | 56.37482 | 86.61142 | 11937 ft | 237 kts | 94° |
| 2026-05-06 14:52 | 56.37440 | 86.64132 | 12105 ft | 237 kts | 93° |
| 2026-05-06 14:53 | 56.37409 | 86.67070 | 12236 ft | 237 kts | 93° |
| 2026-05-06 14:53 | 56.37366 | 86.70049 | 12347 ft | 238 kts | 93° |
| 2026-05-06 14:53 | 56.37332 | 86.73039 | 12464 ft | 239 kts | 94° |
| 2026-05-06 14:53 | 56.37288 | 86.76044 | 12609 ft | 240 kts | 94° |
| 2026-05-06 14:54 | 56.37259 | 86.79037 | 12719 ft | 238 kts | 92° |
| 2026-05-06 14:54 | 56.37235 | 86.82048 | 12838 ft | 241 kts | 92° |
| 2026-05-06 14:54 | 56.37219 | 86.85048 | 12935 ft | 239 kts | 93° |
| 2026-05-06 14:54 | 56.37183 | 86.88051 | 13029 ft | 241 kts | 93° |
| 2026-05-06 14:55 | 56.37140 | 86.91086 | 13168 ft | 241 kts | 93° |
| 2026-05-06 14:55 | 56.37100 | 86.94076 | 13312 ft | 240 kts | 93° |
| 2026-05-06 14:55 | 56.37060 | 86.97107 | 13434 ft | 241 kts | 93° |
| 2026-05-06 14:55 | 56.37020 | 87.00130 | 13561 ft | 242 kts | 93° |
| 2026-05-06 14:56 | 56.36977 | 87.03169 | 13687 ft | 242 kts | 93° |
| 2026-05-06 14:56 | 56.36935 | 87.06209 | 13815 ft | 242 kts | 93° |
| 2026-05-06 14:56 | 56.36888 | 87.09255 | 13945 ft | 243 kts | 93° |
| 2026-05-06 14:56 | 56.36841 | 87.12299 | 14066 ft | 243 kts | 93° |
| 2026-05-06 14:57 | 56.36798 | 87.15316 | 14179 ft | 243 kts | 93° |
| 2026-05-06 14:57 | 56.36753 | 87.18370 | 14292 ft | 244 kts | 93° |
| 2026-05-06 14:57 | 56.36704 | 87.21431 | 14410 ft | 244 kts | 93° |
| 2026-05-06 14:57 | 56.36656 | 87.24499 | 14506 ft | 245 kts | 93° |
| 2026-05-06 14:58 | 56.36607 | 87.27582 | 14602 ft | 246 kts | 94° |
| 2026-05-06 14:58 | 56.36555 | 87.30664 | 14713 ft | 246 kts | 93° |
| 2026-05-06 14:58 | 56.36504 | 87.33756 | 14817 ft | 246 kts | 93° |
| 2026-05-06 14:58 | 56.36453 | 87.36843 | 14904 ft | 246 kts | 94° |
| 2026-05-06 14:59 | 56.36397 | 87.39942 | 14995 ft | 247 kts | 94° |
| 2026-05-06 14:59 | 56.36343 | 87.43043 | 15098 ft | 247 kts | 93° |
| 2026-05-06 14:59 | 56.36289 | 87.46112 | 15159 ft | 250 kts | 94° |
| 2026-05-06 14:59 | 56.36233 | 87.49235 | 15261 ft | 249 kts | 94° |
| 2026-05-06 15:00 | 56.36163 | 87.52372 | 15354 ft | 249 kts | 94° |
| 2026-05-06 15:00 | 56.36093 | 87.55502 | 15444 ft | 250 kts | 94° |
| 2026-05-06 15:00 | 56.36029 | 87.58637 | 15509 ft | 251 kts | 94° |
| 2026-05-06 15:00 | 56.35989 | 87.60718 | 15571 ft | 251 kts | 94° |
| 2026-05-06 15:01 | 56.35929 | 87.63867 | 15655 ft | 251 kts | 94° |
| 2026-05-06 15:01 | 56.35871 | 87.67015 | 15739 ft | 252 kts | 94° |
| 2026-05-06 15:01 | 56.35787 | 87.71197 | 15846 ft | 252 kts | 94° |
| 2026-05-06 15:01 | 56.35724 | 87.74353 | 15916 ft | 251 kts | 93° |
| 2026-05-06 15:02 | 56.35671 | 87.77502 | 15951 ft | 252 kts | 93° |
| 2026-05-06 15:02 | 56.35638 | 87.79644 | 16002 ft | 252 kts | 93° |
| 2026-05-06 15:02 | 56.35582 | 87.82777 | 16066 ft | 254 kts | 94° |
| 2026-05-06 15:02 | 56.35518 | 87.85965 | 16142 ft | 254 kts | 94° |
| 2026-05-06 15:03 | 56.35457 | 87.89152 | 16209 ft | 254 kts | 94° |
| 2026-05-06 15:03 | 56.35383 | 87.92345 | 16283 ft | 254 kts | 94° |
| 2026-05-06 15:03 | 56.35310 | 87.95537 | 16366 ft | 254 kts | 94° |
| 2026-05-06 15:03 | 56.35244 | 87.98689 | 16427 ft | 255 kts | 94° |
| 2026-05-06 15:04 | 56.35168 | 88.01894 | 16499 ft | 255 kts | 95° |
| 2026-05-06 15:04 | 56.35089 | 88.05097 | 16567 ft | 255 kts | 94° |
| 2026-05-06 15:04 | 56.35000 | 88.08305 | 16643 ft | 256 kts | 95° |
| 2026-05-06 15:04 | 56.34921 | 88.11514 | 16713 ft | 256 kts | 94° |
| 2026-05-06 15:05 | 56.34848 | 88.14723 | 16778 ft | 256 kts | 94° |
| 2026-05-06 15:05 | 56.34777 | 88.17929 | 16844 ft | 256 kts | 94° |
| 2026-05-06 15:05 | 56.34703 | 88.21143 | 16906 ft | 256 kts | 94° |
| 2026-05-06 15:05 | 56.34627 | 88.24312 | 16958 ft | 257 kts | 94° |
| 2026-05-06 15:06 | 56.34548 | 88.27531 | 17028 ft | 257 kts | 94° |
| 2026-05-06 15:06 | 56.34468 | 88.30757 | 17089 ft | 257 kts | 94° |
| 2026-05-06 15:06 | 56.34391 | 88.33989 | 17223 ft | 257 kts | 94° |
| 2026-05-06 15:06 | 56.34316 | 88.37212 | 17412 ft | 257 kts | 94° |
| 2026-05-06 15:07 | 56.34234 | 88.40435 | 17582 ft | 258 kts | 94° |
| 2026-05-06 15:07 | 56.34149 | 88.43664 | 17777 ft | 258 kts | 94° |
| 2026-05-06 15:07 | 56.34072 | 88.46836 | 18408 ft | 248 kts | 95° |
| 2026-05-06 15:07 | 56.34007 | 88.49894 | 18798 ft | 251 kts | 95° |
| 2026-05-06 15:08 | 56.33924 | 88.53158 | 18860 ft | 268 kts | 95° |
| 2026-05-06 15:08 | 56.33827 | 88.56607 | 18888 ft | 283 kts | 95° |
| 2026-05-06 15:08 | 56.33708 | 88.60255 | 18900 ft | 296 kts | 96° |
| 2026-05-06 15:08 | 56.33582 | 88.64029 | 18905 ft | 307 kts | 95° |
| 2026-05-06 15:09 | 56.33473 | 88.67926 | 18907 ft | 315 kts | 95° |
| 2026-05-06 15:09 | 56.33364 | 88.71900 | 18904 ft | 321 kts | 95° |
| 2026-05-06 15:09 | 56.33254 | 88.75903 | 18904 ft | 326 kts | 95° |
| 2026-05-06 15:09 | 56.33137 | 88.80011 | 18909 ft | 329 kts | 95° |
| 2026-05-06 15:10 | 56.33018 | 88.84163 | 18910 ft | 332 kts | 95° |
| 2026-05-06 15:10 | 56.32894 | 88.88333 | 18912 ft | 335 kts | 95° |
| 2026-05-06 15:10 | 56.32771 | 88.92546 | 18913 ft | 337 kts | 94° |
| 2026-05-06 15:10 | 56.32672 | 88.96775 | 18915 ft | 339 kts | 94° |
| 2026-05-06 15:11 | 56.32560 | 89.01023 | 18913 ft | 340 kts | 94° |
| 2026-05-06 15:11 | 56.32441 | 89.05274 | 18914 ft | 341 kts | 94° |
| 2026-05-06 15:11 | 56.32324 | 89.09543 | 18913 ft | 341 kts | 94° |
| 2026-05-06 15:11 | 56.32204 | 89.13816 | 18915 ft | 342 kts | 94° |
| 2026-05-06 15:12 | 56.32083 | 89.18094 | 18915 ft | 342 kts | 94° |
| 2026-05-06 15:12 | 56.31961 | 89.22346 | 18914 ft | 343 kts | 94° |
| 2026-05-06 15:12 | 56.31837 | 89.26659 | 18915 ft | 343 kts | 94° |
| 2026-05-06 15:12 | 56.31710 | 89.30955 | 18917 ft | 344 kts | 94° |
| 2026-05-06 15:13 | 56.31583 | 89.35277 | 18916 ft | 344 kts | 94° |
| 2026-05-06 15:13 | 56.31453 | 89.39589 | 18914 ft | 345 kts | 94° |
| 2026-05-06 15:13 | 56.31326 | 89.43854 | 18915 ft | 345 kts | 94° |
| 2026-05-06 15:13 | 56.31191 | 89.48187 | 18915 ft | 345 kts | 94° |
| 2026-05-06 15:14 | 56.31058 | 89.52517 | 18916 ft | 346 kts | 94° |
| 2026-05-06 15:14 | 56.30921 | 89.56855 | 18915 ft | 346 kts | 94° |
| 2026-05-06 15:14 | 56.30789 | 89.60996 | 18915 ft | 347 kts | 94° |
| 2026-05-06 15:14 | 56.30651 | 89.65344 | 18915 ft | 348 kts | 94° |
| 2026-05-06 15:15 | 56.30507 | 89.69708 | 18915 ft | 348 kts | 94° |
| 2026-05-06 15:15 | 56.30367 | 89.74057 | 18922 ft | 348 kts | 94° |
| 2026-05-06 15:15 | 56.30222 | 89.78427 | 18931 ft | 348 kts | 94° |
| 2026-05-06 15:15 | 56.30077 | 89.82725 | 18936 ft | 348 kts | 95° |
| 2026-05-06 15:16 | 56.29930 | 89.87080 | 18939 ft | 349 kts | 94° |
| 2026-05-06 15:16 | 56.29782 | 89.91448 | 18942 ft | 349 kts | 94° |
| 2026-05-06 15:16 | 56.29630 | 89.95808 | 18944 ft | 349 kts | 95° |
| 2026-05-06 15:16 | 56.29477 | 90.00180 | 18944 ft | 350 kts | 94° |
| 2026-05-06 15:17 | 56.29323 | 90.04550 | 18942 ft | 350 kts | 95° |
| 2026-05-06 15:17 | 56.29167 | 90.08926 | 18943 ft | 350 kts | 95° |
| 2026-05-06 15:17 | 56.29008 | 90.13307 | 18944 ft | 350 kts | 95° |
| 2026-05-06 15:17 | 56.28852 | 90.17621 | 18943 ft | 350 kts | 95° |
| 2026-05-06 15:18 | 56.28691 | 90.21998 | 18943 ft | 350 kts | 95° |
| 2026-05-06 15:18 | 56.28529 | 90.26361 | 18944 ft | 350 kts | 95° |
| 2026-05-06 15:18 | 56.28369 | 90.30747 | 18944 ft | 351 kts | 95° |
| 2026-05-06 15:18 | 56.28205 | 90.35121 | 18948 ft | 350 kts | 95° |
| 2026-05-06 15:19 | 56.28036 | 90.39493 | 18951 ft | 350 kts | 95° |
| 2026-05-06 15:19 | 56.27867 | 90.43852 | 18952 ft | 350 kts | 95° |
| 2026-05-06 15:19 | 56.27698 | 90.48225 | 18952 ft | 349 kts | 95° |
| 2026-05-06 15:19 | 56.27526 | 90.52590 | 18955 ft | 349 kts | 95° |
| 2026-05-06 15:20 | 56.27357 | 90.56970 | 18954 ft | 349 kts | 95° |
| 2026-05-06 15:20 | 56.27187 | 90.61285 | 18950 ft | 349 kts | 94° |
| 2026-05-06 15:20 | 56.27206 | 90.65648 | 18954 ft | 349 kts | 86° |
| 2026-05-06 15:20 | 56.27295 | 90.69977 | 18948 ft | 344 kts | 96° |
| 2026-05-06 15:21 | 56.26706 | 90.74077 | 18866 ft | 338 kts | 111° |
| 2026-05-06 15:21 | 56.25944 | 90.78103 | 18679 ft | 341 kts | 110° |
| 2026-05-06 15:21 | 56.25324 | 90.82202 | 18489 ft | 338 kts | 104° |
| 2026-05-06 15:21 | 56.24884 | 90.86344 | 18298 ft | 335 kts | 101° |
| 2026-05-06 15:22 | 56.24485 | 90.90455 | 18110 ft | 332 kts | 101° |
| 2026-05-06 15:22 | 56.24066 | 90.94490 | 17921 ft | 331 kts | 103° |
| 2026-05-06 15:22 | 56.23612 | 90.98531 | 17738 ft | 329 kts | 103° |
| 2026-05-06 15:22 | 56.23159 | 91.02548 | 17557 ft | 328 kts | 103° |
| 2026-05-06 15:23 | 56.22679 | 91.06581 | 17373 ft | 329 kts | 104° |
| 2026-05-06 15:23 | 56.22198 | 91.10592 | 17189 ft | 328 kts | 103° |
| 2026-05-06 15:23 | 56.21724 | 91.14615 | 17005 ft | 331 kts | 104° |
| 2026-05-06 15:23 | 56.21236 | 91.18663 | 16819 ft | 331 kts | 103° |
| 2026-05-06 15:24 | 56.20765 | 91.22707 | 16635 ft | 331 kts | 103° |
| 2026-05-06 15:24 | 56.20293 | 91.26753 | 16452 ft | 331 kts | 103° |
| 2026-05-06 15:24 | 56.19822 | 91.30805 | 16264 ft | 331 kts | 103° |
| 2026-05-06 15:24 | 56.19354 | 91.34791 | 16080 ft | 330 kts | 103° |
| 2026-05-06 15:25 | 56.18882 | 91.38824 | 15890 ft | 329 kts | 103° |
| 2026-05-06 15:25 | 56.18408 | 91.42829 | 15710 ft | 328 kts | 103° |
| 2026-05-06 15:25 | 56.17936 | 91.46835 | 15527 ft | 327 kts | 103° |
| 2026-05-06 15:25 | 56.17462 | 91.50824 | 15345 ft | 327 kts | 103° |
| 2026-05-06 15:26 | 56.16987 | 91.54818 | 15161 ft | 326 kts | 103° |
| 2026-05-06 15:26 | 56.16512 | 91.58800 | 14808 ft | 329 kts | 103° |
| 2026-05-06 15:26 | 56.16022 | 91.62863 | 14315 ft | 333 kts | 103° |
| 2026-05-06 15:26 | 56.15541 | 91.66909 | 13862 ft | 330 kts | 103° |
| 2026-05-06 15:27 | 56.15060 | 91.70911 | 13406 ft | 326 kts | 103° |
| 2026-05-06 15:27 | 56.14581 | 91.74871 | 12956 ft | 324 kts | 103° |
| 2026-05-06 15:27 | 56.14105 | 91.78805 | 12507 ft | 321 kts | 103° |
| 2026-05-06 15:27 | 56.13633 | 91.82707 | 12054 ft | 319 kts | 103° |
| 2026-05-06 15:28 | 56.13167 | 91.86534 | 11602 ft | 318 kts | 103° |
| 2026-05-06 15:28 | 56.12696 | 91.90396 | 11160 ft | 316 kts | 103° |
| 2026-05-06 15:28 | 56.12228 | 91.94214 | 10709 ft | 313 kts | 103° |
| 2026-05-06 15:28 | 56.11760 | 91.98021 | 10260 ft | 310 kts | 104° |
| 2026-05-06 15:29 | 56.11295 | 92.01786 | 9811 ft | 307 kts | 104° |
| 2026-05-06 15:29 | 56.10835 | 92.05498 | 9354 ft | 304 kts | 104° |
| 2026-05-06 15:29 | 56.10381 | 92.09167 | 8891 ft | 300 kts | 104° |
| 2026-05-06 15:29 | 56.09933 | 92.12812 | 8446 ft | 297 kts | 105° |
| 2026-05-06 15:30 | 56.09486 | 92.16396 | 8000 ft | 295 kts | 105° |
| 2026-05-06 15:30 | 56.09040 | 92.19962 | 7555 ft | 291 kts | 105° |
| 2026-05-06 15:30 | 56.08606 | 92.23464 | 7184 ft | 286 kts | 105° |
| 2026-05-06 15:30 | 56.08171 | 92.26909 | 6808 ft | 282 kts | 105° |
| 2026-05-06 15:31 | 56.07741 | 92.30312 | 6435 ft | 279 kts | 105° |
| 2026-05-06 15:31 | 56.07319 | 92.33677 | 6051 ft | 276 kts | 105° |
| 2026-05-06 15:31 | 56.06903 | 92.36968 | 5678 ft | 273 kts | 105° |
| 2026-05-06 15:32 | 56.06084 | 92.43461 | 4726 ft | 260 kts | 104° |
| 2026-05-06 15:32 | 56.05915 | 92.46552 | 4302 ft | 245 kts | 82° |
| 2026-05-06 15:32 | 56.06690 | 92.49317 | 4051 ft | 259 kts | 49° |
| 2026-05-06 15:32 | 56.08013 | 92.51603 | 3795 ft | 270 kts | 41° |
| 2026-05-06 15:33 | 56.09403 | 92.53867 | 3549 ft | 268 kts | 43° |
| 2026-05-06 15:33 | 56.10768 | 92.55698 | 3187 ft | 229 kts | 31° |
| 2026-05-06 15:33 | 56.12097 | 92.57072 | 2805 ft | 210 kts | 29° |
| 2026-05-06 15:33 | 56.13371 | 92.57830 | 2633 ft | 180 kts | 12° |
| 2026-05-06 15:34 | 56.14501 | 92.58230 | 2551 ft | 157 kts | 10° |
| 2026-05-06 15:34 | 56.15446 | 92.57807 | 2422 ft | 130 kts | 317° |
| 2026-05-06 15:34 | 56.15856 | 92.56348 | 1777 ft | 141 kts | 279° |
| 2026-05-06 15:34 | 56.16037 | 92.54691 | 1449 ft | 130 kts | 286° |
| 2026-05-06 15:35 | 56.16374 | 92.53213 | 1153 ft | 118 kts | 293° |
| 2026-05-06 15:35 | 56.16683 | 92.51896 | 978 ft | 115 kts | 292° |
| 2026-05-06 15:35 | 56.16978 | 92.50625 | 953 ft | 100 kts | 292° |
| 2026-05-06 15:35 | 56.17130 | 92.49975 | 949 ft | 30 kts | 295° |
| 2026-05-06 15:36 | 56.17203 | 92.49707 | 951 ft | 19 kts | 297° |
| 2026-05-06 15:36 | 56.17257 | 92.49486 | 950 ft | 20 kts | 293° |
| 2026-05-06 15:36 | 56.17318 | 92.49229 | 950 ft | 20 kts | 292° |
| 2026-05-06 15:36 | 56.17375 | 92.48990 | 950 ft | 28 kts | 295° |
| 2026-05-06 15:37 | 56.17457 | 92.48744 | 950 ft | 19 kts | 327° |
| 2026-05-06 15:37 | 56.17550 | 92.48628 | 952 ft | 14 kts | 324° |
| 2026-05-06 15:37 | 56.17632 | 92.48521 | 951 ft | 24 kts | 324° |
| 2026-05-06 15:37 | 56.17743 | 92.48402 | 953 ft | 16 kts | 352° |
| 2026-05-06 15:38 | 56.17835 | 92.48459 | 953 ft | 13 kts | 22° |
| 2026-05-06 15:38 | 56.17889 | 92.48392 | 951 ft | 16 kts | 288° |
| 2026-05-06 15:38 | 56.17938 | 92.48235 | 953 ft | 11 kts | 317° |
| 2026-05-06 15:38 | 56.18000 | 92.48244 | 953 ft | 8 kts | 21° |
| 2026-05-06 15:39 | 56.18015 | 92.48255 | 953 ft | 0 kts | 22° |